Atlantic City, NJ

7:52 AM EDT on August 22, 2014 (GMT -0400)
AC Bar and Grill | Change Station
CLOSE
Current Station
Personal Weather Station
Location: Atlantic City, NJ
Elevation: 10 ft
Nearby Weather Stations

Elev 10 ft 39.36 °N, 74.43 °W | Updated 0 second ago

Overcast
Overcast
71.7 °F
Feels Like 71.7 °F
N
0.0
Wind Variable Wind from SE
Gusts 3.1 mph

Today
High -- | Low -- °F
--% Chance of Precip.
Yesterday
High -- | Low -- °F
Precip. -- in
6:16 AM 7:43 PM
Waning Crescent, 8% visible
Pressure 29.99 in
Visibility 7.0 miles
Clouds Overcast 1100 ft
Dew Point 68 °F
Humidity 88%
Rainfall 0.43 in
Snow Depth Not available.
UV 0 out of 12
Pollen 8.50 out of 12
Air Quality Not available.
Flu Activity Not available.
SPECI KACY 221133Z 08005KT 7SM OVC011 21/21 A2999 RMK AO2 T02060206 $

More Conditions Fewer Conditions

Pressure 29.99 in
Visibility 7.0 miles
Clouds Overcast 1100 ft
Dew Point 68 °F
Humidity 88%
Rainfall 0.43 in
Snow Depth Not available.
UV 0 out of 12
Pollen 8.50 out of 12
Air Quality Not available.
Flu Activity Not available.
SPECI KACY 221133Z 08005KT 7SM OVC011 21/21 A2999 RMK AO2 T02060206 $

More Conditions Fewer Conditions

10-Day Weather Forecast

Almanac

Astronomy

Aug. 22, 2014 Rise Set
Actual Time 6:16 AM EDT 7:43 PM EDT
Civil Twilight 5:48 AM EDT 8:11 PM EDT
Nautical Twilight 5:14 AM EDT 8:45 PM EDT
Astronomical Twilight 4:39 AM EDT 9:20 PM EDT
Moon 3:37 AM EDT 5:50 PM EDT
Length of Visible Light 14h 22m
Length of Day
13h 26m
Tomorrow will be 2m 23s shorter.
Waning Crescent, 8% of the Moon is Illuminated
Today
Waning Crescent
Aug 25
New
Sep 2
First Quarter
Sep 8
Full
Sep 15
Last Quarter

Today's Extremes

State Highs State Lows

Community

WunderPhotos

Upload Photos

1,746,151 photos uploaded!

WunderBlogs® & News

By Dr. Jeff Masters
Director of Meteorology, Weather Underground
By Kari Strenfel
Meteorologist, Weather Underground
By Christopher C. Burt
Weather Historian, Weather Underground
August 22, 2014
August 22, 2014
August 22, 2014

Nearby

Snow Depth

Station Depth Elevation
No new snow has been reported.

Earthquake Activity

City Distance Mag. Time & Date
No recent earthquake activity has been reported nearby.
Minimum magnitude displayed is 2.5.

Coastal Water Temperatures

Place Temperature
Atlantic City, NJ 77.0 °F

Nearby Weather Stations